Архив погоды в Маслянино

Метеограмма Маслянино
Вторник, 14 Августа
Время местн. Темп Ветер Видим Явления Облачность нижн/средн/верх Атм. давл. Влжн Точка росы ВНГО R Сост. почвы Tg s
Напр Скр Прв ур.ст ур.м изм
19:00 +20.2° В 1 - 20 км - облачно с прояснениями 748 766 +0.2 48% +9° 1 км 0 - - -
16:00 +19.3° С-В 2 - 20 км - облачно с прояснениями 748 766 +0.1 57% +10.5° 1 км - - - -
13:00 +19.3° В,С-В 2 - 20 км - преимущественно облачно 748 766 -0.2 56% +10.4° 1 км - - - -
10:00 +15.9° С-В 1 - 20 км - облачно с прояснениями 748 766 +0.8 77% +11.8° более 2.5 км - - - -
07:00 +7.2° штиль 0 - 1 км дымка облачно 747 766 +1.3 95% +6.5° 1 км 0 Сухая (без трещин) +10° -
04:00 +10° штиль 0 - 20 км - облачно 746 764 +0.7 94% +9.1° 1 км - - - -
01:00 +10.8° З 1 - 20 км - облачно 745 764 +0.8 92% +9.6° 1 км - - - -
Понедельник, 13 Августа
Время местн. Темп Ветер Видим Явления Облачность нижн/средн/верх Атм. давл. Влжн Точка росы ВНГО R Сост. почвы Tg s
Напр Скр Прв ур.ст ур.м изм
22:00 +11.6° З 1 - 20 км - облачно 745 763 +1.7 88% +9.6° 1 км - - - -
19:00 +17° С,С-З 2 - 20 км - переменная облачность 743 761 +1.3 58% +8.8° 1 км 0 - - -
16:00 +18.8° Ю,Ю-З 3 - 20 км - облачно 742 759 +0.5 45% +6.5° 1 км - - - -
13:00 +17.4° З,Ю-З 2 - 20 км - облачно 741 759 +1.1 49% +6.7° 1 км - - - -
10:00 +15.5° Ю,Ю-З 4 - 20 км - облачно с прояснениями 740 758 +0.9 63% +8.6° более 2.5 км - - - -
07:00 +11.2° З,С-З 1 - 20 км - облачно с прояснениями 739 757 +1.2 90% +9.6° 1 км 0 Сухая (без трещин) +11° -
04:00 +9.2° Ю 1 - 20 км - облачно с прояснениями 738 756 +0.7 95% +8.5° 1 км - - - -
01:00 +12.1° Ю-З 2 - 20 км - облачно с прояснениями 737 755 +1.1 92% +10.8° 1 км - - - -
Воскресенье, 12 Августа
Время местн. Темп Ветер Видим Явления Облачность нижн/средн/верх Атм. давл. Влжн Точка росы ВНГО R Сост. почвы Tg s
Напр Скр Прв ур.ст ур.м изм
22:00 +14.1° Ю 2 - 20 км - облачно 736 754 +1.9 79% +10.6° более 2.5 км - - - -
19:00 +17.8° Ю-З 1 - 20 км - облачно 734 752 +1.5 67% +11.5° 1 км 0 - - -
16:00 +20.5° Ю,Ю-З 4 - 20 км - облачно 733 750 +0.8 52% +10.3° 1 км - - - -
13:00 +19° Ю,Ю-З 4 - 20 км - облачно с прояснениями 732 749 +1 74% +14.2° 1 км - - - -
10:00 +15.9° Ю,Ю-В 2 - 10 км - облачно 731 748 +0.2 93% +14.7° 1 км - - - -
07:00 +15.1° Ю-В 1 - 4 км дымка {туман} облачно 731 748 -0.6 96% +14.4° 1 км 3 Влажная (без луж) +15° -
04:00 +13.8° В 1 - 500 м туман усиливается, небо видно облачно 731 749 -0.8 96% +13.1° 1 км - - - -
01:00 +15.7° штиль 0 - 20 км небо без изменений {ливневые осадки} облачно 732 750 +0.2 94% +14.8° 1 км - - - -
Суббота, 11 Августа
Время местн. Темп Ветер Видим Явления Облачность нижн/средн/верх Атм. давл. Влжн Точка росы ВНГО R Сост. почвы Tg s
Напр Скр Прв ур.ст ур.м изм
22:00 +16.3° Ю-З 2 - 20 км небо без изменений {ливневые осадки} облачно 732 749 +0.8 90% +14.7° 1 км - - - -
19:00 +22.4° Ю-З 4 12 20 км - облачно 731 748 -0.2 57% +13.6° 1 км 0 - - -
16:00 +21.7° Ю-З 5 - 20 км - облачно 731 749 +0.8 70% +16.1° 1 км - - - -